Time;durP1;ratioP1;P1;durP2;ratioP2;P2;SDS_P1;SDS_P2;PMS_P1;PMS_P2;Temp;Humidity;BMP_temperature;BMP_pressure;BME280_temperature;BME280_humidity;BME280_pressure;Samples;Min_cycle;Max_cycle;Signal;HPM_P1;HPM_P2
2023/02/14 00:02:04;;;;;;;3.42;1.50;;;;;;;1.54;88.92;147710.09;5063453;28;20138;-65
2023/02/14 00:04:30;;;;;;;4.38;1.70;;;;;;;1.61;88.76;147726.66;5063448;28;20061;-64
2023/02/14 00:06:55;;;;;;;5.57;1.80;;;;;;;1.60;88.64;147722.84;5064345;28;20415;-66
2023/02/14 00:09:22;;;;;;;2.95;1.48;;;;;;;1.64;88.68;147733.00;5064477;28;20097;-65
2023/02/14 00:11:47;;;;;;;3.60;1.92;;;;;;;1.65;87.96;147735.56;5063130;28;20043;-64
2023/02/14 00:16:58;;;;;;;2.63;1.50;;;;;;;1.63;87.81;147730.47;5044328;28;20392;-64
2023/02/14 00:19:23;;;;;;;1.75;1.30;;;;;;;1.45;87.77;147685.91;5059932;28;20028;-64
2023/02/14 00:21:49;;;;;;;4.93;1.77;;;;;;;1.61;87.76;147726.66;5064085;28;20377;-65
2023/02/14 00:24:16;;;;;;;2.53;1.27;;;;;;;1.68;87.67;147744.50;5064084;28;20058;-64
2023/02/14 00:26:42;;;;;;;5.55;2.15;;;;;;;1.64;87.87;147733.00;5063658;28;20067;-65
2023/02/14 00:29:10;;;;;;;3.72;1.42;;;;;;;1.45;88.41;147685.91;5054531;28;20233;-66
2023/02/14 00:31:37;;;;;;;3.88;1.60;;;;;;;1.48;89.19;147694.84;5060444;28;20379;-65
2023/02/14 00:34:03;;;;;;;3.95;1.70;;;;;;;1.49;88.90;147697.34;5063295;28;20199;-66
2023/02/14 00:36:29;;;;;;;5.97;1.30;;;;;;;1.55;88.73;147711.34;5063249;28;20083;-64
2023/02/14 00:38:54;;;;;;;5.60;2.00;;;;;;;1.49;89.14;147696.09;5063422;28;20036;-65
2023/02/14 00:41:20;;;;;;;3.05;1.65;;;;;;;1.51;89.26;147702.47;5063632;28;20025;-63
2023/02/14 00:43:48;;;;;;;5.40;1.90;;;;;;;1.45;89.37;147687.16;5063878;28;20028;-64
2023/02/14 00:46:14;;;;;;;5.68;1.80;;;;;;;1.46;89.33;147689.72;5063747;28;20210;-63
2023/02/14 00:48:40;;;;;;;3.45;1.40;;;;;;;1.37;89.57;147668.09;5053881;28;20042;-63
2023/02/14 00:51:06;;;;;;;4.97;1.70;;;;;;;1.40;89.94;147674.47;5047747;28;20037;-65
2023/02/14 00:53:31;;;;;;;5.28;1.80;;;;;;;1.49;89.86;147697.34;5063191;28;20070;-65
2023/02/14 00:55:57;;;;;;;3.58;1.67;;;;;;;1.45;89.85;147685.91;5057804;28;20029;-64
2023/02/14 00:58:22;;;;;;;5.40;1.45;;;;;;;1.44;90.12;147684.66;5058471;28;20031;-64
2023/02/14 01:00:48;;;;;;;3.20;1.90;;;;;;;1.50;89.75;147698.66;5063181;28;20025;-63
2023/02/14 01:03:13;;;;;;;3.03;1.80;;;;;;;1.58;90.18;147717.72;5062616;28;20032;-64
2023/02/14 01:05:39;;;;;;;4.38;1.73;;;;;;;1.57;90.27;147715.19;5063321;28;20029;-64
2023/02/14 01:08:04;;;;;;;5.85;2.17;;;;;;;1.59;89.82;147720.28;5061434;28;20044;-65
2023/02/14 01:10:30;;;;;;;3.60;1.55;;;;;;;1.60;89.63;147722.84;5044021;28;20036;-65
2023/02/14 01:12:55;;;;;;;3.65;1.50;;;;;;;1.57;89.72;147715.19;5063146;28;20094;-64
2023/02/14 01:15:21;;;;;;;2.95;1.67;;;;;;;1.58;88.93;147719.00;5063389;28;20029;-63
2023/02/14 01:17:47;;;;;;;2.58;1.40;;;;;;;1.66;88.82;147738.13;5063033;28;20029;-63
2023/02/14 01:20:13;;;;;;;5.72;2.03;;;;;;;1.59;88.86;147720.28;5063244;28;20306;-65
2023/02/14 01:22:39;;;;;;;4.18;1.80;;;;;;;1.66;88.53;147738.13;5062597;28;20454;-64
2023/02/14 01:25:06;;;;;;;4.07;1.52;;;;;;;1.64;88.95;147734.28;5061843;28;20202;-64
2023/02/14 01:27:32;;;;;;;5.05;1.63;;;;;;;1.52;89.13;147703.72;5062593;28;20029;-64
2023/02/14 01:29:57;;;;;;;4.53;2.00;;;;;;;1.59;88.92;147720.28;5062287;28;20035;-64
2023/02/14 01:32:23;;;;;;;4.78;1.75;;;;;;;1.48;89.16;147693.53;5061708;28;20202;-63
2023/02/14 01:34:48;;;;;;;3.72;1.67;;;;;;;1.62;89.14;147729.19;5061518;28;20052;-63
2023/02/14 01:37:14;;;;;;;4.13;1.80;;;;;;;1.58;88.93;147717.72;5061512;28;20060;-64
2023/02/14 01:39:40;;;;;;;5.05;1.77;;;;;;;1.49;88.58;147697.34;5062711;28;20297;-64
2023/02/14 01:42:05;;;;;;;2.72;1.88;;;;;;;1.48;88.76;147694.84;5062756;28;20544;-64
2023/02/14 01:44:31;;;;;;;2.08;1.45;;;;;;;1.61;88.35;147725.38;5055772;28;20045;-64
2023/02/14 01:46:59;;;;;;;2.40;1.45;;;;;;;1.62;88.52;147727.91;5061266;28;20053;-64
2023/02/14 01:49:30;;;;;;;4.90;1.98;;;;;;;1.52;88.13;147704.97;5047612;28;20322;-63
2023/02/14 01:52:15;;;;;;;3.72;1.70;;;;;;;1.59;88.41;147720.28;5053448;28;20052;-64
2023/02/14 01:54:48;;;;;;;3.13;1.80;;;;;;;1.59;87.88;147721.56;5062295;28;20332;-64
2023/02/14 01:57:19;;;;;;;3.63;1.67;;;;;;;1.51;87.84;147702.47;5062499;28;20277;-64
2023/02/14 01:59:53;;;;;;;5.10;2.00;;;;;;;1.62;87.69;147727.91;5061808;28;20028;-63
2023/02/14 02:02:22;;;;;;;5.50;1.85;;;;;;;1.65;87.21;147735.56;5061833;28;20119;-65
2023/02/14 02:04:50;;;;;;;4.50;1.85;;;;;;;1.57;87.35;147715.19;5061973;28;20024;-64
2023/02/14 02:07:23;;;;;;;4.60;1.90;;;;;;;1.41;86.98;147677.03;5061700;28;20029;-66
2023/02/14 02:09:59;;;;;;;5.18;2.13;;;;;;;1.51;87.20;147701.16;5061648;28;20028;-64
2023/02/14 02:12:25;;;;;;;4.75;1.70;;;;;;;1.59;87.18;147721.56;5050133;28;20092;-65
2023/02/14 02:14:54;;;;;;;4.28;1.65;;;;;;;1.50;87.06;147698.66;5061046;28;20044;-65
2023/02/14 02:17:46;;;;;;;5.18;1.80;;;;;;;1.37;87.24;147666.84;5061706;28;20032;-65
2023/02/14 02:21:03;;;;;;;5.88;2.00;;;;;;;1.34;87.82;147659.16;5062209;28;20075;-63
2023/02/14 02:23:46;;;;;;;2.92;1.60;;;;;;;1.42;87.80;147679.53;5040863;28;20044;-64
2023/02/14 02:26:12;;;;;;;3.67;1.45;;;;;;;1.49;87.77;147696.09;5042047;28;20037;-65
2023/02/14 02:28:59;;;;;;;3.65;1.40;;;;;;;1.48;88.46;147694.84;5057973;28;20075;-64
2023/02/14 02:32:08;;;;;;;4.63;1.60;;;;;;;1.46;88.22;147688.47;5053637;28;20281;-64
2023/02/14 02:35:14;;;;;;;3.00;1.33;;;;;;;1.54;87.72;147708.84;5047961;28;20079;-64
2023/02/14 02:38:01;;;;;;;5.82;1.92;;;;;;;1.36;88.18;147665.53;5061065;28;20045;-64
2023/02/14 02:40:57;;;;;;;4.00;1.90;;;;;;;1.47;88.20;147692.28;5062115;28;20048;-65
2023/02/14 02:43:26;;;;;;;4.10;1.70;;;;;;;1.52;88.06;147704.97;5062050;28;20158;-64
2023/02/14 02:55:06;;;;;;;4.30;1.65;;;;;;;1.44;88.38;147684.66;5060896;28;20368;-65
2023/02/14 02:57:38;;;;;;;5.53;1.92;;;;;;;1.39;88.51;147671.91;5061047;28;20044;-64
2023/02/14 03:00:06;;;;;;;5.18;1.67;;;;;;;1.29;89.00;147647.72;5061204;28;20040;-64
2023/02/14 03:04:46;;;;;;;3.05;1.73;;;;;;;1.01;89.99;147577.72;5061292;28;20029;-63
2023/02/14 03:05:26;;;;;;;1.60;1.23;;;;;;;1.31;88.96;147651.53;5041931;28;20290;-64
2023/02/14 03:07:51;;;;;;;2.38;1.33;;;;;;;1.14;88.77;147609.53;5045891;28;20033;-64
2023/02/14 03:10:19;;;;;;;1.90;0.98;;;;;;;1.27;87.99;147641.34;5061395;28;20021;-63
2023/02/14 03:13:22;;;;;;;3.60;1.27;;;;;;;1.25;88.33;147636.28;5049893;28;20040;-63
2023/02/14 03:16:16;;;;;;;2.25;1.00;;;;;;;1.32;89.20;147654.09;5061459;28;20033;-63
2023/02/14 03:21:54;;;;;;;2.42;1.02;;;;;;;1.18;90.08;147621.03;5040378;28;20032;-64
2023/02/14 03:24:19;;;;;;;1.60;0.98;;;;;;;1.06;89.41;147589.19;5040330;28;20211;-65
2023/02/14 03:26:47;;;;;;;2.30;1.30;;;;;;;1.11;89.76;147603.19;5044754;28;20029;-64
2023/02/14 03:29:35;;;;;;;3.33;1.02;;;;;;;1.06;89.68;147590.47;5065316;28;20237;-64
2023/02/14 03:32:28;;;;;;;4.43;0.90;;;;;;;1.23;89.62;147631.16;5065029;28;20071;-63
2023/02/14 03:35:05;;;;;;;1.73;1.10;;;;;;;1.30;89.44;147649.03;5058389;28;20365;-63
2023/02/14 03:37:44;;;;;;;1.33;0.90;;;;;;;1.34;89.68;147660.47;5059815;28;20048;-65
2023/02/14 03:40:29;;;;;;;2.83;1.25;;;;;;;1.34;89.51;147660.47;5064998;28;20029;-64
2023/02/14 03:43:00;;;;;;;2.58;1.48;;;;;;;1.40;89.34;147674.47;5063681;28;20144;-64
2023/02/14 03:45:34;;;;;;;4.15;1.60;;;;;;;1.43;89.67;147682.09;5064903;28;20080;-63
2023/02/14 03:48:05;;;;;;;1.75;1.00;;;;;;;1.42;89.79;147679.53;5064834;28;20039;-63
2023/02/14 03:50:34;;;;;;;4.43;1.50;;;;;;;1.34;90.32;147660.47;5064965;28;20348;-63
2023/02/14 03:53:02;;;;;;;3.13;1.20;;;;;;;1.37;89.81;147666.84;5063564;28;20330;-64
2023/02/14 03:56:09;;;;;;;3.63;1.77;;;;;;;1.31;89.80;147651.53;5064753;28;20229;-65
2023/02/14 03:58:40;;;;;;;3.38;2.08;;;;;;;1.20;89.70;147626.09;5064605;28;20028;-64
2023/02/14 04:01:13;;;;;;;3.45;2.03;;;;;;;1.16;89.35;147614.66;5063760;28;20049;-64
2023/02/14 04:03:41;;;;;;;4.03;2.22;;;;;;;1.17;89.51;147618.47;5063721;28;20044;-63
2023/02/14 04:06:07;;;;;;;5.07;2.65;;;;;;;1.36;88.80;147665.53;5062810;28;20036;-64
2023/02/14 04:08:33;;;;;;;3.83;2.50;;;;;;;1.42;89.24;147679.53;5049544;28;20020;-64
2023/02/14 04:11:01;;;;;;;6.25;2.33;;;;;;;1.33;88.31;147656.66;5063847;28;20030;-65
2023/02/14 04:13:27;;;;;;;5.80;2.55;;;;;;;1.45;88.10;147685.91;5064181;28;20029;-63
2023/02/14 04:15:53;;;;;;;3.10;2.38;;;;;;;1.38;88.16;147670.66;5063318;28;20052;-64
2023/02/14 04:21:03;;;;;;;5.47;2.78;;;;;;;1.42;87.58;147679.53;5063856;28;20106;-63
2023/02/14 04:23:29;;;;;;;6.18;3.10;;;;;;;1.39;87.89;147671.91;5064234;28;20029;-64
2023/02/14 04:25:55;;;;;;;2.80;2.22;;;;;;;1.47;87.74;147692.28;5063651;28;20094;-63
2023/02/14 04:28:20;;;;;;;4.63;2.42;;;;;;;1.13;87.91;147608.28;5064079;28;20033;-65
2023/02/14 04:30:46;;;;;;;5.82;2.45;;;;;;;1.34;87.27;147660.47;5063643;28;20043;-65
2023/02/14 04:33:11;;;;;;;6.45;2.10;;;;;;;1.30;86.94;147649.03;5062614;28;20326;-64
2023/02/14 04:35:37;;;;;;;4.13;2.25;;;;;;;1.31;86.97;147651.53;5056644;28;20243;-65
2023/02/14 04:38:03;;;;;;;4.57;2.78;;;;;;;1.37;86.91;147666.84;5062395;28;20037;-64
2023/02/14 04:40:29;;;;;;;3.75;2.00;;;;;;;1.29;87.01;147646.47;5062574;28;20032;-63
2023/02/14 04:42:55;;;;;;;4.72;2.30;;;;;;;1.33;86.82;147656.66;5063649;28;20039;-63
2023/02/14 04:45:20;;;;;;;4.00;1.90;;;;;;;1.26;86.72;147638.84;5063883;28;20066;-64
2023/02/14 04:47:46;;;;;;;3.72;1.70;;;;;;;1.28;86.70;147645.16;5063472;28;20333;-64
2023/02/14 04:50:12;;;;;;;4.85;2.20;;;;;;;1.30;86.79;147650.28;5063542;28;20092;-63
2023/02/14 04:52:38;;;;;;;3.58;1.60;;;;;;;1.27;86.67;147642.66;5063472;28;20281;-63
2023/02/14 04:55:04;;;;;;;2.22;1.67;;;;;;;1.20;86.53;147626.09;5063473;28;20102;-63
2023/02/14 04:57:30;;;;;;;6.05;1.90;;;;;;;1.36;86.25;147664.28;5063334;28;20025;-64
2023/02/14 04:59:55;;;;;;;4.57;1.88;;;;;;;1.32;86.10;147654.09;5062711;28;20028;-63
2023/02/14 05:02:21;;;;;;;2.17;1.40;;;;;;;1.38;85.92;147669.34;5058590;28;20037;-64
2023/02/14 05:04:47;;;;;;;4.70;1.55;;;;;;;1.34;85.37;147659.16;5063404;28;20044;-64
2023/02/14 05:07:12;;;;;;;4.47;1.45;;;;;;;1.35;85.49;147661.72;5063126;28;20021;-62
2023/02/14 05:09:38;;;;;;;2.70;1.40;;;;;;;1.35;85.23;147663.03;5061347;28;20052;-64
2023/02/14 05:12:04;;;;;;;4.53;1.60;;;;;;;1.32;85.09;147654.09;5062867;28;20043;-64
2023/02/14 05:14:29;;;;;;;3.88;1.73;;;;;;;1.36;85.69;147665.53;5062787;28;20032;-64
2023/02/14 05:16:55;;;;;;;4.10;1.52;;;;;;;1.44;85.75;147684.66;5062523;28;20028;-65
2023/02/14 05:19:20;;;;;;;3.72;1.50;;;;;;;1.41;85.20;147675.72;5048510;28;20501;-64
2023/02/14 05:21:46;;;;;;;4.72;1.50;;;;;;;1.40;85.33;147674.47;5049303;28;20032;-64
2023/02/14 05:24:12;;;;;;;3.17;1.80;;;;;;;1.46;85.60;147689.72;5061756;28;20016;-64
2023/02/14 05:26:37;;;;;;;3.10;1.30;;;;;;;1.47;85.62;147692.28;5061588;28;20028;-64
2023/02/14 05:29:03;;;;;;;3.83;1.40;;;;;;;1.46;85.65;147688.47;5061558;28;20099;-63
2023/02/14 05:31:29;;;;;;;3.20;1.50;;;;;;;1.46;85.65;147688.47;5062762;28;20031;-66
2023/02/14 05:33:54;;;;;;;2.58;1.10;;;;;;;1.52;85.79;147704.97;5062673;28;20206;-64
2023/02/14 05:36:20;;;;;;;4.05;2.17;;;;;;;1.46;85.36;147688.47;5062630;28;20071;-65
2023/02/14 05:38:46;;;;;;;2.85;1.58;;;;;;;1.47;86.46;147690.97;5061319;28;20036;-64
2023/02/14 05:41:11;;;;;;;2.45;1.35;;;;;;;1.40;85.88;147674.47;5062562;28;20033;-66
2023/02/14 05:43:37;;;;;;;4.13;1.40;;;;;;;1.45;85.77;147687.16;5062540;28;20028;-64
2023/02/14 05:46:03;;;;;;;3.17;1.73;;;;;;;1.52;86.24;147704.97;5062251;28;20071;-63
2023/02/14 05:48:28;;;;;;;4.82;1.60;;;;;;;1.51;86.11;147701.16;5061680;28;20525;-64
2023/02/14 05:50:54;;;;;;;2.47;1.48;;;;;;;1.66;86.34;147738.13;5062471;28;20025;-65
2023/02/14 05:53:19;;;;;;;5.70;1.90;;;;;;;1.62;85.74;147727.91;5062388;28;20044;-64
2023/02/14 05:55:46;;;;;;;5.25;1.88;;;;;;;1.57;86.04;147715.19;5062202;28;20036;-64
2023/02/14 05:58:11;;;;;;;3.20;1.85;;;;;;;1.68;85.75;147743.19;5060965;28;20032;-65
2023/02/14 06:00:38;;;;;;;3.78;1.48;;;;;;;1.62;85.08;147727.91;5062015;28;20048;-64
2023/02/14 06:03:03;;;;;;;6.03;1.92;;;;;;;1.64;85.81;147733.00;5062218;28;20084;-66
2023/02/14 06:05:29;;;;;;;4.18;1.50;;;;;;;1.55;85.50;147712.66;5062350;28;20051;-66
2023/02/14 06:07:54;;;;;;;5.13;1.90;;;;;;;1.70;85.21;147748.31;5061283;28;20025;-64
2023/02/14 06:10:22;;;;;;;2.15;1.30;;;;;;;1.58;84.75;147717.72;5057035;28;20033;-66
2023/02/14 06:12:50;;;;;;;3.40;1.60;;;;;;;1.78;84.93;147767.38;5061739;28;20033;-66
2023/02/14 06:15:16;;;;;;;1.88;1.38;;;;;;;1.76;85.05;147763.56;5061550;28;20045;-65
2023/02/14 06:17:41;;;;;;;7.70;1.52;;;;;;;1.66;84.56;147738.13;5061480;28;20017;-66
2023/02/14 06:20:11;;;;;;;3.80;1.50;;;;;;;1.75;85.07;147761.00;5060755;28;20054;-65
2023/02/14 06:22:37;;;;;;;4.25;1.70;;;;;;;1.71;84.89;147750.81;5060814;28;20106;-64
2023/02/14 06:25:04;;;;;;;4.13;1.50;;;;;;;1.69;85.31;147745.75;5061721;28;20044;-67
2023/02/14 06:27:30;;;;;;;3.58;1.55;;;;;;;1.78;84.99;147767.38;5061875;28;20029;-65
2023/02/14 06:29:56;;;;;;;4.68;1.60;;;;;;;1.86;84.92;147789.03;5061705;28;20043;-66
2023/02/14 06:32:22;;;;;;;5.10;1.92;;;;;;;1.88;84.96;147794.16;5060376;28;20033;-66
2023/02/14 06:34:48;;;;;;;3.35;1.40;;;;;;;1.96;85.10;147813.22;5061080;28;20182;-66
2023/02/14 06:37:13;;;;;;;4.57;1.55;;;;;;;1.81;84.46;147776.31;5061878;28;20021;-66
2023/02/14 06:39:39;;;;;;;2.90;1.38;;;;;;;1.95;84.24;147810.66;5061623;28;20024;-65
2023/02/14 06:42:05;;;;;;;4.10;1.80;;;;;;;1.97;84.38;147815.78;5061862;28;20032;-65
2023/02/14 06:44:31;;;;;;;5.53;1.92;;;;;;;1.97;84.39;147814.53;5061954;28;20041;-65
2023/02/14 06:46:56;;;;;;;3.13;1.60;;;;;;;2.05;84.43;147836.19;5061144;28;20041;-64
2023/02/14 06:49:22;;;;;;;4.18;2.05;;;;;;;1.88;85.75;147794.16;5061153;28;20029;-65
2023/02/14 06:51:48;;;;;;;3.50;1.42;;;;;;;1.95;84.91;147810.66;5060801;28;20196;-64
2023/02/14 06:54:14;;;;;;;2.88;1.40;;;;;;;1.93;84.63;147805.59;5061386;28;20041;-64
2023/02/14 06:56:40;;;;;;;4.43;1.90;;;;;;;2.04;85.47;147832.34;5061529;28;20098;-67
2023/02/14 06:59:06;;;;;;;3.65;1.83;;;;;;;2.03;85.92;147829.78;5061781;28;20028;-65
2023/02/14 07:01:31;;;;;;;5.53;1.55;;;;;;;2.05;85.92;147834.88;5064827;28;20075;-65
2023/02/14 07:03:57;;;;;;;4.53;1.90;;;;;;;2.01;85.86;147824.69;5065318;28;20036;-64
2023/02/14 07:06:22;;;;;;;2.50;1.65;;;;;;;2.03;86.26;147829.78;5065068;28;20021;-65
2023/02/14 07:08:48;;;;;;;6.22;2.42;;;;;;;2.09;85.97;147845.06;5064834;28;20053;-66
2023/02/14 07:11:13;;;;;;;4.65;1.55;;;;;;;2.05;85.92;147834.88;5064713;28;20059;-65
2023/02/14 07:13:39;;;;;;;2.83;1.52;;;;;;;2.04;85.38;147833.63;5064380;28;20217;-66
2023/02/14 07:16:05;;;;;;;5.07;1.60;;;;;;;2.05;85.83;147836.19;5064924;28;20035;-65
2023/02/14 07:18:30;;;;;;;5.18;1.65;;;;;;;2.14;85.67;147857.81;5060961;28;20028;-66
2023/02/14 07:20:56;;;;;;;4.70;1.55;;;;;;;2.04;85.88;147832.34;5064787;28;20021;-66
2023/02/14 07:23:21;;;;;;;6.88;2.50;;;;;;;2.04;86.48;147832.34;5063993;28;20017;-65
2023/02/14 07:25:47;;;;;;;4.88;1.83;;;;;;;2.09;85.37;147843.81;5064205;28;20198;-63
2023/02/14 07:28:13;;;;;;;2.75;1.50;;;;;;;2.11;85.31;147850.19;5064683;28;20450;-64
2023/02/14 07:30:38;;;;;;;2.55;1.60;;;;;;;2.12;85.07;147852.69;5063032;28;20033;-65
2023/02/14 07:33:04;;;;;;;2.45;1.17;;;;;;;2.20;84.67;147873.09;5064964;28;20083;-64
2023/02/14 07:35:29;;;;;;;3.95;1.35;;;;;;;2.14;85.73;147856.53;5064857;28;20025;-64
2023/02/14 07:37:55;;;;;;;3.33;1.52;;;;;;;2.24;86.66;147882.03;5064533;28;20021;-64
2023/02/14 07:40:20;;;;;;;7.00;1.80;;;;;;;2.15;87.68;147860.38;5064580;28;20024;-65
2023/02/14 07:42:53;;;;;;;2.17;1.58;;;;;;;2.07;88.78;147840.00;5063501;28;20029;-65
2023/02/14 07:45:19;;;;;;;3.72;1.40;;;;;;;2.05;87.82;147834.88;5063214;28;20252;-66
2023/02/14 07:47:48;;;;;;;5.53;1.85;;;;;;;2.07;87.59;147840.00;5062248;28;20040;-66
2023/02/14 07:50:14;;;;;;;3.35;1.45;;;;;;;2.28;87.15;147890.91;5064519;28;20025;-66
2023/02/14 07:52:39;;;;;;;4.85;1.73;;;;;;;2.29;86.73;147893.47;5064448;28;20037;-65
2023/02/14 07:55:06;;;;;;;3.17;1.40;;;;;;;2.37;85.80;147915.13;5059456;28;20080;-65
2023/02/14 07:57:32;;;;;;;4.28;1.80;;;;;;;2.34;84.61;147907.50;5063191;28;20383;-65
2023/02/14 07:59:58;;;;;;;3.97;1.73;;;;;;;2.36;84.36;147911.31;5061896;28;20037;-64
2023/02/14 08:02:23;;;;;;;3.47;1.60;;;;;;;2.42;84.81;147927.88;5064587;28;20302;-64
2023/02/14 08:04:49;;;;;;;3.55;1.30;;;;;;;2.35;83.95;147908.75;5064519;28;20024;-64
2023/02/14 08:07:14;;;;;;;2.75;1.70;;;;;;;2.47;83.88;147939.34;5064522;28;20051;-65
2023/02/14 08:09:40;;;;;;;4.22;1.60;;;;;;;2.56;84.08;147962.25;5064429;28;20025;-64
2023/02/14 08:14:50;;;;;;;4.00;1.67;;;;;;;2.25;82.88;147884.53;5064319;28;20051;-64
2023/02/14 08:17:15;;;;;;;2.42;1.50;;;;;;;2.55;83.49;147959.75;5064309;28;20380;-64
2023/02/14 08:19:41;;;;;;;4.03;1.70;;;;;;;2.58;82.97;147967.38;5052883;28;20059;-66
2023/02/14 08:22:07;;;;;;;3.05;1.80;;;;;;;2.75;82.45;148009.44;5044138;28;20061;-65
2023/02/14 08:24:32;;;;;;;5.10;1.40;;;;;;;2.62;81.38;147975.00;5048491;28;20021;-64
2023/02/14 08:26:58;;;;;;;3.08;1.30;;;;;;;2.75;80.99;148008.13;5050658;28;20057;-65
2023/02/14 08:29:24;;;;;;;1.85;1.30;;;;;;;2.61;81.44;147972.44;5044380;28;20076;-64
2023/02/14 08:31:50;;;;;;;2.42;1.48;;;;;;;2.66;82.36;147986.47;5058573;28;20055;-66
2023/02/14 08:34:16;;;;;;;3.35;1.83;;;;;;;2.53;84.75;147954.63;5063961;28;20059;-65
2023/02/14 08:36:42;;;;;;;2.25;1.30;;;;;;;2.45;85.29;147932.97;5063655;28;20040;-63
2023/02/14 08:39:08;;;;;;;3.13;1.20;;;;;;;2.42;84.88;147926.59;5063298;28;20355;-65
2023/02/14 08:41:35;;;;;;;2.78;1.50;;;;;;;2.45;86.46;147934.22;5063017;28;20310;-65
2023/02/14 08:44:01;;;;;;;6.35;1.50;;;;;;;2.56;86.33;147962.25;5062440;28;20029;-65
2023/02/14 08:46:27;;;;;;;3.53;1.90;;;;;;;2.57;86.50;147963.56;5062965;28;20121;-65
2023/02/14 08:48:53;;;;;;;3.17;1.30;;;;;;;2.47;85.94;147939.34;5062892;28;20037;-63
2023/02/14 08:51:21;;;;;;;3.40;1.40;;;;;;;2.37;86.82;147913.88;5063192;28;20028;-66
2023/02/14 08:53:49;;;;;;;1.52;1.23;;;;;;;1.93;87.62;147804.34;5063330;28;20190;-64
2023/02/14 08:56:15;;;;;;;1.75;1.13;;;;;;;2.12;87.53;147852.69;5063653;28;20035;-65
2023/02/14 08:58:41;;;;;;;2.78;1.10;;;;;;;2.05;87.09;147836.19;5063559;28;20028;-66
2023/02/14 09:01:08;;;;;;;1.27;1.00;;;;;;;2.11;86.49;147848.88;5063642;28;20029;-65
2023/02/14 09:03:34;;;;;;;0.82;0.73;;;;;;;2.13;86.59;147855.25;5063492;28;20352;-65
2023/02/14 09:06:07;;;;;;;1.90;1.40;;;;;;;2.18;86.76;147866.72;5063367;28;20040;-65
2023/02/14 09:08:34;;;;;;;1.83;1.30;;;;;;;2.48;86.85;147940.59;5049038;28;20040;-65
2023/02/14 09:11:07;;;;;;;1.98;1.20;;;;;;;2.34;87.27;147907.50;5060919;28;20695;-65
2023/02/14 09:13:32;;;;;;;2.28;1.27;;;;;;;2.48;86.90;147941.91;5055088;28;20084;-65
2023/02/14 09:16:01;;;;;;;1.30;1.20;;;;;;;2.67;86.64;147987.78;5063077;28;20029;-66
2023/02/14 09:18:27;;;;;;;2.83;1.60;;;;;;;2.65;87.33;147982.66;5062953;28;20032;-65
2023/02/14 09:20:52;;;;;;;3.65;1.60;;;;;;;2.65;87.02;147982.66;5044705;28;20037;-64
2023/02/14 09:23:18;;;;;;;4.65;1.60;;;;;;;2.56;86.96;147962.25;5060220;28;20032;-64
2023/02/14 09:25:43;;;;;;;2.35;1.33;;;;;;;2.35;87.78;147908.75;5061745;28;20024;-66
2023/02/14 09:28:09;;;;;;;3.13;1.52;;;;;;;2.30;88.03;147897.28;5051790;28;20052;-65
2023/02/14 09:30:34;;;;;;;3.20;2.00;;;;;;;2.20;88.09;147873.09;5061896;28;20028;-65
2023/02/14 09:33:03;;;;;;;2.33;1.63;;;;;;;2.21;87.55;147875.66;5062106;28;20039;-66
2023/02/14 09:35:29;;;;;;;2.55;1.63;;;;;;;2.00;87.38;147823.41;5062773;28;20016;-67
2023/02/14 09:40:38;;;;;;;3.47;1.80;;;;;;;2.19;87.00;147869.28;5062660;28;20270;-64
2023/02/14 09:43:09;;;;;;;4.50;2.05;;;;;;;2.11;86.95;147850.19;5062593;28;20045;-65
2023/02/14 09:45:37;;;;;;;3.00;1.92;;;;;;;2.21;86.52;147874.41;5062689;28;20054;-65
2023/02/14 09:48:18;;;;;;;5.55;2.10;;;;;;;2.20;86.56;147873.09;5051246;28;20033;-65
2023/02/14 09:51:04;;;;;;;3.13;1.58;;;;;;;2.34;85.83;147906.25;5042569;28;20029;-65
2023/02/14 09:53:39;;;;;;;3.47;1.77;;;;;;;2.27;85.39;147889.66;5061834;28;20055;-65
2023/02/14 09:56:15;;;;;;;6.13;1.83;;;;;;;2.16;86.41;147862.91;5062309;28;20345;-65
2023/02/14 09:59:02;;;;;;;5.00;2.30;;;;;;;2.41;86.14;147924.06;5062540;28;20036;-66
2023/02/14 10:02:32;;;;;;;2.63;1.70;;;;;;;2.35;85.75;147908.75;5058379;28;20302;-66
2023/02/14 10:05:16;;;;;;;3.08;2.00;;;;;;;2.51;86.39;147949.53;5027854;28;20104;-66
2023/02/14 10:07:49;;;;;;;4.30;2.63;;;;;;;2.45;85.90;147934.22;5062124;28;20326;-65
2023/02/14 10:10:17;;;;;;;6.10;1.95;;;;;;;2.59;85.81;147969.94;5062331;28;20083;-65
2023/02/14 10:12:55;;;;;;;3.00;2.20;;;;;;;2.63;86.18;147978.84;5046632;28;20032;-65
2023/02/14 10:15:26;;;;;;;2.58;1.90;;;;;;;2.62;85.71;147975.00;5060622;28;20029;-65
2023/02/14 10:17:51;;;;;;;5.57;2.80;;;;;;;2.49;85.83;147944.41;5061480;28;20051;-66
2023/02/14 10:20:37;;;;;;;3.75;2.25;;;;;;;2.54;85.91;147957.19;5062074;28;20037;-66
2023/02/14 10:23:26;;;;;;;5.90;3.15;;;;;;;2.46;85.66;147935.53;5062106;28;20048;-68
2023/02/14 10:26:03;;;;;;;4.57;3.10;;;;;;;2.66;85.47;147986.47;5060731;28;20045;-66
2023/02/14 10:28:44;;;;;;;3.70;2.88;;;;;;;2.75;86.08;148009.44;5060708;28;20037;-67
2023/02/14 10:31:23;;;;;;;8.43;2.97;;;;;;;2.35;85.84;147908.75;5060791;28;20051;-66
2023/02/14 10:33:51;;;;;;;3.60;2.08;;;;;;;2.44;86.03;147930.41;5060325;28;20430;-65
2023/02/14 10:36:35;;;;;;;3.15;1.70;;;;;;;2.33;85.16;147903.69;5061872;28;20039;-67
2023/02/14 10:39:10;;;;;;;3.55;2.08;;;;;;;2.42;84.77;147926.59;5041888;28;20061;-66
2023/02/14 10:41:52;;;;;;;5.05;2.28;;;;;;;2.47;84.08;147938.09;5061830;28;20025;-64
2023/02/14 10:44:50;;;;;;;5.28;1.98;;;;;;;2.33;83.79;147903.69;5061749;28;20051;-65
2023/02/14 10:47:34;;;;;;;4.82;2.10;;;;;;;2.40;83.19;147921.50;5061270;28;20111;-67
2023/02/14 10:50:22;;;;;;;5.13;2.72;;;;;;;2.49;82.33;147943.16;5061511;28;20033;-66
2023/02/14 10:53:12;;;;;;;4.85;2.65;;;;;;;2.55;81.70;147958.44;5060490;28;20033;-68
2023/02/14 10:56:02;;;;;;;7.00;2.70;;;;;;;2.50;81.83;147945.72;5061075;28;20313;-66
2023/02/14 10:58:33;;;;;;;3.78;2.30;;;;;;;2.42;81.13;147926.59;5061586;28;20032;-66
2023/02/14 11:01:04;;;;;;;7.50;2.50;;;;;;;2.63;80.65;147978.84;5061709;28;20096;-66
2023/02/14 11:03:33;;;;;;;5.30;2.35;;;;;;;2.50;80.85;147946.97;5061724;28;20105;-66
2023/02/14 11:05:59;;;;;;;4.78;2.85;;;;;;;2.65;80.65;147982.66;5061564;28;20093;-65
2023/02/14 11:08:30;;;;;;;5.28;1.88;;;;;;;2.51;80.00;147949.53;5061380;28;20028;-65
2023/02/14 11:11:10;;;;;;;2.80;2.08;;;;;;;2.41;79.52;147925.31;5060884;28;20025;-67
2023/02/14 11:13:38;;;;;;;2.10;1.90;;;;;;;2.60;79.22;147971.19;5059405;28;20044;-67
2023/02/14 11:16:10;;;;;;;3.42;1.77;;;;;;;2.46;78.78;147935.53;5061069;28;20040;-64
2023/02/14 11:18:38;;;;;;;2.47;1.77;;;;;;;2.52;79.21;147950.78;5061088;28;20318;-66
2023/02/14 11:21:10;;;;;;;3.40;2.42;;;;;;;2.59;78.81;147969.94;5062147;28;20029;-66
2023/02/14 11:23:43;;;;;;;4.15;2.30;;;;;;;2.63;78.80;147977.56;5061377;28;20098;-66
2023/02/14 11:26:23;;;;;;;4.30;2.15;;;;;;;2.49;79.41;147944.41;5060996;28;20068;-65
2023/02/14 11:28:55;;;;;;;4.35;2.33;;;;;;;2.52;80.84;147952.09;5056108;28;20062;-66
2023/02/14 11:31:34;;;;;;;6.00;2.33;;;;;;;2.40;80.82;147922.78;5061231;28;20028;-65
2023/02/14 11:34:04;;;;;;;3.03;2.10;;;;;;;2.48;80.66;147940.59;5061123;28;20113;-64
2023/02/14 11:36:30;;;;;;;5.30;2.28;;;;;;;2.53;79.64;147954.63;5060837;28;20064;-66
2023/02/14 11:39:24;;;;;;;8.70;2.85;;;;;;;2.54;80.14;147957.19;5060092;28;20029;-65
2023/02/14 11:41:54;;;;;;;4.32;2.50;;;;;;;2.42;79.93;147926.59;5040904;28;20352;-65
2023/02/14 11:44:23;;;;;;;3.72;2.25;;;;;;;2.46;79.84;147935.53;5057949;28;20234;-65
2023/02/14 11:46:50;;;;;;;4.25;2.28;;;;;;;2.18;79.28;147866.72;5062803;28;20064;-65
2023/02/14 11:49:30;;;;;;;5.72;2.45;;;;;;;2.52;79.42;147950.78;5064607;28;20025;-65
2023/02/14 11:51:58;;;;;;;3.47;2.38;;;;;;;2.53;80.16;147954.63;5064747;28;20077;-65
2023/02/14 11:54:35;;;;;;;3.10;2.08;;;;;;;2.32;81.08;147901.13;5064523;28;20048;-66
2023/02/14 11:57:10;;;;;;;3.72;2.38;;;;;;;2.52;80.92;147952.09;5064770;28;20091;-66
2023/02/14 11:59:41;;;;;;;2.40;1.92;;;;;;;2.37;81.33;147915.13;5064774;28;20032;-66
2023/02/14 12:02:25;;;;;;;4.78;2.80;;;;;;;2.40;80.42;147921.50;5064198;28;20321;-66
2023/02/14 12:04:59;;;;;;;3.05;1.80;;;;;;;2.44;80.23;147931.72;5063354;28;20079;-66
2023/02/14 12:07:32;;;;;;;2.90;1.60;;;;;;;2.59;80.40;147968.63;5064620;28;20029;-66
2023/02/14 12:10:14;;;;;;;4.07;2.35;;;;;;;2.59;80.93;147968.63;5046659;28;20037;-66
2023/02/14 12:12:54;;;;;;;3.40;1.98;;;;;;;2.56;80.90;147962.25;5064102;28;20041;-66